sensor_id;sensor_type;location;lat;lon;timestamp;temperature;humidity
39675;DHT22;27790;50.840;4.386;2023-04-25T00:00:18;10.60;95.80
39675;DHT22;27790;50.840;4.386;2023-04-25T00:02:44;10.60;95.80
39675;DHT22;27790;50.840;4.386;2023-04-25T00:05:09;10.70;95.90
39675;DHT22;27790;50.840;4.386;2023-04-25T00:07:36;10.70;95.90
39675;DHT22;27790;50.840;4.386;2023-04-25T00:10:01;10.80;95.90
39675;DHT22;27790;50.840;4.386;2023-04-25T00:12:27;10.80;95.60
39675;DHT22;27790;50.840;4.386;2023-04-25T00:14:54;10.80;95.60
39675;DHT22;27790;50.840;4.386;2023-04-25T00:17:22;10.80;95.70
39675;DHT22;27790;50.840;4.386;2023-04-25T00:19:50;10.80;95.80
39675;DHT22;27790;50.840;4.386;2023-04-25T00:22:16;10.80;95.90
39675;DHT22;27790;50.840;4.386;2023-04-25T00:24:41;10.90;95.90
39675;DHT22;27790;50.840;4.386;2023-04-25T00:27:07;10.90;95.80
39675;DHT22;27790;50.840;4.386;2023-04-25T00:29:33;11.00;95.80
39675;DHT22;27790;50.840;4.386;2023-04-25T00:31:59;11.00;95.90
39675;DHT22;27790;50.840;4.386;2023-04-25T00:34:24;11.00;95.90
39675;DHT22;27790;50.840;4.386;2023-04-25T00:36:50;10.90;96.10
39675;DHT22;27790;50.840;4.386;2023-04-25T00:39:16;10.90;96.50
39675;DHT22;27790;50.840;4.386;2023-04-25T00:41:41;10.90;96.50
39675;DHT22;27790;50.840;4.386;2023-04-25T00:44:09;10.90;96.60
39675;DHT22;27790;50.840;4.386;2023-04-25T00:46:36;10.90;96.60
39675;DHT22;27790;50.840;4.386;2023-04-25T00:49:02;10.90;96.60
39675;DHT22;27790;50.840;4.386;2023-04-25T00:51:28;10.80;96.80
39675;DHT22;27790;50.840;4.386;2023-04-25T00:53:54;10.80;97.10
39675;DHT22;27790;50.840;4.386;2023-04-25T00:56:21;10.80;97.10
39675;DHT22;27790;50.840;4.386;2023-04-25T00:58:47;10.80;97.10
39675;DHT22;27790;50.840;4.386;2023-04-25T01:01:13;10.80;97.30
39675;DHT22;27790;50.840;4.386;2023-04-25T01:03:40;10.90;97.60
39675;DHT22;27790;50.840;4.386;2023-04-25T01:06:10;10.90;97.50
39675;DHT22;27790;50.840;4.386;2023-04-25T01:08:38;10.80;97.40
39675;DHT22;27790;50.840;4.386;2023-04-25T01:11:04;10.70;97.70
39675;DHT22;27790;50.840;4.386;2023-04-25T01:13:30;10.70;97.90
39675;DHT22;27790;50.840;4.386;2023-04-25T01:15:57;10.60;98.00
39675;DHT22;27790;50.840;4.386;2023-04-25T01:18:23;10.60;97.90
39675;DHT22;27790;50.840;4.386;2023-04-25T01:20:51;10.60;97.90
39675;DHT22;27790;50.840;4.386;2023-04-25T01:23:18;10.60;98.20
39675;DHT22;27790;50.840;4.386;2023-04-25T01:25:45;10.60;98.00
39675;DHT22;27790;50.840;4.386;2023-04-25T01:28:11;10.60;97.90
39675;DHT22;27790;50.840;4.386;2023-04-25T01:30:36;10.60;98.00
39675;DHT22;27790;50.840;4.386;2023-04-25T01:33:03;10.50;98.00
39675;DHT22;27790;50.840;4.386;2023-04-25T01:35:30;10.50;98.20
39675;DHT22;27790;50.840;4.386;2023-04-25T01:37:57;10.60;98.70
39675;DHT22;27790;50.840;4.386;2023-04-25T01:40:24;10.60;98.50
39675;DHT22;27790;50.840;4.386;2023-04-25T01:42:50;10.60;98.20
39675;DHT22;27790;50.840;4.386;2023-04-25T01:45:16;10.60;98.10
39675;DHT22;27790;50.840;4.386;2023-04-25T01:47:43;10.60;98.10
39675;DHT22;27790;50.840;4.386;2023-04-25T01:50:10;10.60;98.00
39675;DHT22;27790;50.840;4.386;2023-04-25T01:52:36;10.60;98.20
39675;DHT22;27790;50.840;4.386;2023-04-25T01:55:02;10.60;98.40
39675;DHT22;27790;50.840;4.386;2023-04-25T01:57:28;10.60;98.30
39675;DHT22;27790;50.840;4.386;2023-04-25T02:00:02;10.50;98.40
39675;DHT22;27790;50.840;4.386;2023-04-25T02:02:28;10.50;98.80
39675;DHT22;27790;50.840;4.386;2023-04-25T02:04:54;10.60;98.70
39675;DHT22;27790;50.840;4.386;2023-04-25T02:07:20;10.40;98.50
39675;DHT22;27790;50.840;4.386;2023-04-25T02:09:46;10.40;98.80
39675;DHT22;27790;50.840;4.386;2023-04-25T02:12:11;10.30;98.90
39675;DHT22;27790;50.840;4.386;2023-04-25T02:14:37;10.30;98.90
39675;DHT22;27790;50.840;4.386;2023-04-25T02:17:03;10.20;98.90
39675;DHT22;27790;50.840;4.386;2023-04-25T02:19:29;10.10;99.20
39675;DHT22;27790;50.840;4.386;2023-04-25T02:21:54;10.10;99.30
39675;DHT22;27790;50.840;4.386;2023-04-25T02:24:20;10.00;99.30
39675;DHT22;27790;50.840;4.386;2023-04-25T02:26:46;10.00;99.60
39675;DHT22;27790;50.840;4.386;2023-04-25T02:29:12;10.10;99.80
39675;DHT22;27790;50.840;4.386;2023-04-25T02:31:38;10.10;99.70
39675;DHT22;27790;50.840;4.386;2023-04-25T02:34:03;10.10;99.80
39675;DHT22;27790;50.840;4.386;2023-04-25T02:36:29;10.10;99.80
39675;DHT22;27790;50.840;4.386;2023-04-25T02:38:57;10.10;99.80
39675;DHT22;27790;50.840;4.386;2023-04-25T02:41:24;10.10;99.90
39675;DHT22;27790;50.840;4.386;2023-04-25T02:43:49;10.00;99.90
39675;DHT22;27790;50.840;4.386;2023-04-25T02:46:15;10.00;99.90
39675;DHT22;27790;50.840;4.386;2023-04-25T02:48:41;10.10;99.90
39675;DHT22;27790;50.840;4.386;2023-04-25T02:51:06;10.10;99.90
39675;DHT22;27790;50.840;4.386;2023-04-25T02:53:32;10.20;99.90
39675;DHT22;27790;50.840;4.386;2023-04-25T02:55:57;10.30;99.90
39675;DHT22;27790;50.840;4.386;2023-04-25T02:58:24;10.20;99.90
39675;DHT22;27790;50.840;4.386;2023-04-25T03:00:50;10.10;99.80
39675;DHT22;27790;50.840;4.386;2023-04-25T03:03:15;10.10;99.90
39675;DHT22;27790;50.840;4.386;2023-04-25T03:05:43;10.10;99.90
39675;DHT22;27790;50.840;4.386;2023-04-25T03:08:09;10.10;99.90
39675;DHT22;27790;50.840;4.386;2023-04-25T03:10:35;10.10;99.90
39675;DHT22;27790;50.840;4.386;2023-04-25T03:13:00;10.20;99.90
39675;DHT22;27790;50.840;4.386;2023-04-25T03:15:26;10.30;99.90
39675;DHT22;27790;50.840;4.386;2023-04-25T03:17:52;10.30;99.90
39675;DHT22;27790;50.840;4.386;2023-04-25T03:20:17;10.40;99.80
39675;DHT22;27790;50.840;4.386;2023-04-25T03:22:43;10.30;99.30
39675;DHT22;27790;50.840;4.386;2023-04-25T03:25:09;10.10;99.40
39675;DHT22;27790;50.840;4.386;2023-04-25T03:27:35;10.00;99.40
39675;DHT22;27790;50.840;4.386;2023-04-25T03:30:01;9.90;99.60
39675;DHT22;27790;50.840;4.386;2023-04-25T03:32:28;10.00;99.70
39675;DHT22;27790;50.840;4.386;2023-04-25T03:34:53;9.90;99.40
39675;DHT22;27790;50.840;4.386;2023-04-25T03:37:19;9.90;99.40
39675;DHT22;27790;50.840;4.386;2023-04-25T03:39:45;9.80;99.50
39675;DHT22;27790;50.840;4.386;2023-04-25T03:42:10;9.80;99.60
39675;DHT22;27790;50.840;4.386;2023-04-25T03:44:36;9.70;99.50
39675;DHT22;27790;50.840;4.386;2023-04-25T03:47:01;9.70;99.50
39675;DHT22;27790;50.840;4.386;2023-04-25T03:49:27;9.70;99.70
39675;DHT22;27790;50.840;4.386;2023-04-25T03:51:52;9.70;99.60
39675;DHT22;27790;50.840;4.386;2023-04-25T03:54:18;9.70;99.50
39675;DHT22;27790;50.840;4.386;2023-04-25T03:56:44;9.60;99.10
39675;DHT22;27790;50.840;4.386;2023-04-25T03:59:09;9.50;99.10
39675;DHT22;27790;50.840;4.386;2023-04-25T04:01:35;9.40;99.20
39675;DHT22;27790;50.840;4.386;2023-04-25T04:04:01;9.40;99.30
39675;DHT22;27790;50.840;4.386;2023-04-25T04:06:26;9.40;99.30
39675;DHT22;27790;50.840;4.386;2023-04-25T04:08:52;9.40;99.20
39675;DHT22;27790;50.840;4.386;2023-04-25T04:11:17;9.50;99.30
39675;DHT22;27790;50.840;4.386;2023-04-25T04:13:43;9.50;99.00
39675;DHT22;27790;50.840;4.386;2023-04-25T04:16:09;9.50;98.80
39675;DHT22;27790;50.840;4.386;2023-04-25T04:18:34;9.50;98.90
39675;DHT22;27790;50.840;4.386;2023-04-25T04:21:01;9.60;98.80
39675;DHT22;27790;50.840;4.386;2023-04-25T04:23:26;9.60;98.80
39675;DHT22;27790;50.840;4.386;2023-04-25T04:25:54;9.70;98.80
39675;DHT22;27790;50.840;4.386;2023-04-25T04:28:20;9.80;98.80
39675;DHT22;27790;50.840;4.386;2023-04-25T04:30:47;9.90;98.70
39675;DHT22;27790;50.840;4.386;2023-04-25T04:33:13;9.90;98.20
39675;DHT22;27790;50.840;4.386;2023-04-25T04:35:40;9.90;98.10
39675;DHT22;27790;50.840;4.386;2023-04-25T04:38:07;9.90;98.00
39675;DHT22;27790;50.840;4.386;2023-04-25T04:40:32;9.90;98.10
39675;DHT22;27790;50.840;4.386;2023-04-25T04:42:58;9.90;98.30
39675;DHT22;27790;50.840;4.386;2023-04-25T04:45:24;9.90;98.30
39675;DHT22;27790;50.840;4.386;2023-04-25T04:47:50;9.90;98.50
39675;DHT22;27790;50.840;4.386;2023-04-25T04:50:15;9.80;98.60
39675;DHT22;27790;50.840;4.386;2023-04-25T04:52:41;9.90;98.80
39675;DHT22;27790;50.840;4.386;2023-04-25T04:55:08;9.80;98.50
39675;DHT22;27790;50.840;4.386;2023-04-25T04:57:34;9.80;98.80
39675;DHT22;27790;50.840;4.386;2023-04-25T05:00:00;9.90;98.90
39675;DHT22;27790;50.840;4.386;2023-04-25T05:02:26;9.80;98.50
39675;DHT22;27790;50.840;4.386;2023-04-25T05:04:52;9.70;98.60
39675;DHT22;27790;50.840;4.386;2023-04-25T05:07:18;9.70;98.60
39675;DHT22;27790;50.840;4.386;2023-04-25T05:09:44;9.60;98.60
39675;DHT22;27790;50.840;4.386;2023-04-25T05:12:10;9.50;98.60
39675;DHT22;27790;50.840;4.386;2023-04-25T05:14:36;9.40;98.70
39675;DHT22;27790;50.840;4.386;2023-04-25T05:17:01;9.40;98.40
39675;DHT22;27790;50.840;4.386;2023-04-25T05:19:30;9.30;98.30
39675;DHT22;27790;50.840;4.386;2023-04-25T05:21:56;9.30;98.60
39675;DHT22;27790;50.840;4.386;2023-04-25T05:24:21;9.40;98.50
39675;DHT22;27790;50.840;4.386;2023-04-25T05:26:47;9.40;98.40
39675;DHT22;27790;50.840;4.386;2023-04-25T05:29:12;9.40;98.70
39675;DHT22;27790;50.840;4.386;2023-04-25T05:31:38;9.40;99.00
39675;DHT22;27790;50.840;4.386;2023-04-25T05:34:04;9.30;99.20
39675;DHT22;27790;50.840;4.386;2023-04-25T05:36:29;9.30;99.40
39675;DHT22;27790;50.840;4.386;2023-04-25T05:38:56;9.30;99.00
39675;DHT22;27790;50.840;4.386;2023-04-25T05:41:21;9.20;98.60
39675;DHT22;27790;50.840;4.386;2023-04-25T05:43:47;9.20;97.80
39675;DHT22;27790;50.840;4.386;2023-04-25T05:46:15;9.20;97.60
39675;DHT22;27790;50.840;4.386;2023-04-25T05:48:42;9.30;97.50
39675;DHT22;27790;50.840;4.386;2023-04-25T05:51:08;9.30;97.70
39675;DHT22;27790;50.840;4.386;2023-04-25T05:53:34;9.40;97.70
39675;DHT22;27790;50.840;4.386;2023-04-25T05:56:00;9.50;97.40
39675;DHT22;27790;50.840;4.386;2023-04-25T05:58:26;9.60;97.40
39675;DHT22;27790;50.840;4.386;2023-04-25T06:00:52;9.70;97.00
39675;DHT22;27790;50.840;4.386;2023-04-25T06:03:17;9.80;96.80
39675;DHT22;27790;50.840;4.386;2023-04-25T06:05:43;9.70;96.90
39675;DHT22;27790;50.840;4.386;2023-04-25T06:08:09;9.80;97.00
39675;DHT22;27790;50.840;4.386;2023-04-25T06:10:36;9.90;97.00
39675;DHT22;27790;50.840;4.386;2023-04-25T06:13:02;9.90;97.00
39675;DHT22;27790;50.840;4.386;2023-04-25T06:15:27;9.90;97.30
39675;DHT22;27790;50.840;4.386;2023-04-25T06:17:53;10.00;97.30
39675;DHT22;27790;50.840;4.386;2023-04-25T06:20:19;10.10;97.30
39675;DHT22;27790;50.840;4.386;2023-04-25T06:22:48;10.20;97.10
39675;DHT22;27790;50.840;4.386;2023-04-25T06:25:15;10.30;97.20
39675;DHT22;27790;50.840;4.386;2023-04-25T06:27:40;10.40;97.40
39675;DHT22;27790;50.840;4.386;2023-04-25T06:30:06;10.50;97.30
39675;DHT22;27790;50.840;4.386;2023-04-25T06:32:32;10.60;97.40
39675;DHT22;27790;50.840;4.386;2023-04-25T06:34:59;10.70;97.20
39675;DHT22;27790;50.840;4.386;2023-04-25T06:37:25;10.80;96.80
39675;DHT22;27790;50.840;4.386;2023-04-25T06:39:51;10.80;96.60
39675;DHT22;27790;50.840;4.386;2023-04-25T06:42:17;10.80;95.90
39675;DHT22;27790;50.840;4.386;2023-04-25T06:44:43;10.70;95.90
39675;DHT22;27790;50.840;4.386;2023-04-25T06:47:09;10.70;95.70
39675;DHT22;27790;50.840;4.386;2023-04-25T06:49:34;10.60;95.40
39675;DHT22;27790;50.840;4.386;2023-04-25T06:52:00;10.60;95.60
39675;DHT22;27790;50.840;4.386;2023-04-25T06:54:26;10.60;95.90
39675;DHT22;27790;50.840;4.386;2023-04-25T06:56:54;10.80;95.80
39675;DHT22;27790;50.840;4.386;2023-04-25T06:59:19;10.80;95.60
39675;DHT22;27790;50.840;4.386;2023-04-25T07:01:45;10.80;95.40
39675;DHT22;27790;50.840;4.386;2023-04-25T07:04:11;10.80;95.50
39675;DHT22;27790;50.840;4.386;2023-04-25T07:06:39;10.70;95.20
39675;DHT22;27790;50.840;4.386;2023-04-25T07:09:11;10.70;94.90
39675;DHT22;27790;50.840;4.386;2023-04-25T07:11:37;10.70;94.70
39675;DHT22;27790;50.840;4.386;2023-04-25T07:14:03;10.80;94.60
39675;DHT22;27790;50.840;4.386;2023-04-25T07:16:31;10.80;94.70
39675;DHT22;27790;50.840;4.386;2023-04-25T07:18:56;10.90;94.30
39675;DHT22;27790;50.840;4.386;2023-04-25T07:21:22;10.90;94.20
39675;DHT22;27790;50.840;4.386;2023-04-25T07:23:47;10.80;94.10
39675;DHT22;27790;50.840;4.386;2023-04-25T07:26:13;10.80;94.40
39675;DHT22;27790;50.840;4.386;2023-04-25T07:28:39;10.90;93.70
39675;DHT22;27790;50.840;4.386;2023-04-25T07:31:04;10.90;93.70
39675;DHT22;27790;50.840;4.386;2023-04-25T07:33:30;11.00;93.40
39675;DHT22;27790;50.840;4.386;2023-04-25T07:35:56;10.90;93.00
39675;DHT22;27790;50.840;4.386;2023-04-25T07:38:22;10.90;93.00
39675;DHT22;27790;50.840;4.386;2023-04-25T07:40:48;11.00;92.60
39675;DHT22;27790;50.840;4.386;2023-04-25T07:43:15;11.10;92.70
39675;DHT22;27790;50.840;4.386;2023-04-25T07:45:43;11.20;92.60
39675;DHT22;27790;50.840;4.386;2023-04-25T07:48:11;11.30;92.80
39675;DHT22;27790;50.840;4.386;2023-04-25T07:50:37;11.40;92.20
39675;DHT22;27790;50.840;4.386;2023-04-25T07:53:03;11.30;92.40
39675;DHT22;27790;50.840;4.386;2023-04-25T07:55:29;11.40;92.20
39675;DHT22;27790;50.840;4.386;2023-04-25T07:57:55;11.50;92.80
39675;DHT22;27790;50.840;4.386;2023-04-25T08:00:23;11.60;92.40
39675;DHT22;27790;50.840;4.386;2023-04-25T08:02:50;11.70;92.20
39675;DHT22;27790;50.840;4.386;2023-04-25T08:05:16;11.80;92.10
39675;DHT22;27790;50.840;4.386;2023-04-25T08:07:42;12.00;91.60
39675;DHT22;27790;50.840;4.386;2023-04-25T08:10:09;11.90;91.70
39675;DHT22;27790;50.840;4.386;2023-04-25T08:12:37;12.00;92.10
39675;DHT22;27790;50.840;4.386;2023-04-25T08:15:04;12.20;92.70
39675;DHT22;27790;50.840;4.386;2023-04-25T08:17:30;12.50;91.60
39675;DHT22;27790;50.840;4.386;2023-04-25T08:19:56;12.70;91.30
39675;DHT22;27790;50.840;4.386;2023-04-25T08:22:22;12.80;90.70
39675;DHT22;27790;50.840;4.386;2023-04-25T08:24:49;12.80;91.00
39675;DHT22;27790;50.840;4.386;2023-04-25T08:27:14;12.80;90.20
39675;DHT22;27790;50.840;4.386;2023-04-25T08:29:41;12.70;90.50
39675;DHT22;27790;50.840;4.386;2023-04-25T08:32:07;12.50;90.50
39675;DHT22;27790;50.840;4.386;2023-04-25T08:34:33;12.50;90.30
39675;DHT22;27790;50.840;4.386;2023-04-25T08:36:58;12.50;90.40
39675;DHT22;27790;50.840;4.386;2023-04-25T08:39:24;12.50;90.40
39675;DHT22;27790;50.840;4.386;2023-04-25T08:41:50;13.00;89.70
39675;DHT22;27790;50.840;4.386;2023-04-25T08:44:16;13.20;87.50
39675;DHT22;27790;50.840;4.386;2023-04-25T08:46:42;14.10;86.30
39675;DHT22;27790;50.840;4.386;2023-04-25T08:49:09;14.00;85.90
39675;DHT22;27790;50.840;4.386;2023-04-25T08:51:36;14.50;84.00
39675;DHT22;27790;50.840;4.386;2023-04-25T08:54:09;15.50;83.80
39675;DHT22;27790;50.840;4.386;2023-04-25T08:56:44;16.40;79.40
39675;DHT22;27790;50.840;4.386;2023-04-25T08:59:11;17.30;77.80
39675;DHT22;27790;50.840;4.386;2023-04-25T09:01:37;17.90;76.00
39675;DHT22;27790;50.840;4.386;2023-04-25T09:04:03;18.30;75.20
39675;DHT22;27790;50.840;4.386;2023-04-25T09:06:29;17.60;76.30
39675;DHT22;27790;50.840;4.386;2023-04-25T09:09:02;16.90;75.80
39675;DHT22;27790;50.840;4.386;2023-04-25T09:11:35;16.00;76.80
39675;DHT22;27790;50.840;4.386;2023-04-25T09:14:16;15.40;77.20
39675;DHT22;27790;50.840;4.386;2023-04-25T09:19:27;14.40;77.00
39675;DHT22;27790;50.840;4.386;2023-04-25T09:21:58;13.80;78.20
39675;DHT22;27790;50.840;4.386;2023-04-25T09:24:41;13.50;80.30
39675;DHT22;27790;50.840;4.386;2023-04-25T09:27:13;13.30;80.80
39675;DHT22;27790;50.840;4.386;2023-04-25T09:29:43;13.10;80.50
39675;DHT22;27790;50.840;4.386;2023-04-25T09:34:43;12.70;82.20
39675;DHT22;27790;50.840;4.386;2023-04-25T09:37:10;12.60;83.50
39675;DHT22;27790;50.840;4.386;2023-04-25T09:39:37;12.60;83.60
39675;DHT22;27790;50.840;4.386;2023-04-25T09:42:07;12.60;84.60
39675;DHT22;27790;50.840;4.386;2023-04-25T09:44:35;12.70;85.70
39675;DHT22;27790;50.840;4.386;2023-04-25T09:47:01;12.70;86.10
39675;DHT22;27790;50.840;4.386;2023-04-25T09:49:28;12.60;86.80
39675;DHT22;27790;50.840;4.386;2023-04-25T09:51:57;12.50;86.50
39675;DHT22;27790;50.840;4.386;2023-04-25T09:54:26;12.50;87.00
39675;DHT22;27790;50.840;4.386;2023-04-25T09:56:52;12.30;87.10
39675;DHT22;27790;50.840;4.386;2023-04-25T09:59:22;12.50;87.80
39675;DHT22;27790;50.840;4.386;2023-04-25T10:01:52;12.80;88.40
39675;DHT22;27790;50.840;4.386;2023-04-25T10:04:25;13.00;86.10
39675;DHT22;27790;50.840;4.386;2023-04-25T10:06:54;13.00;85.60
39675;DHT22;27790;50.840;4.386;2023-04-25T10:09:24;13.00;86.00
39675;DHT22;27790;50.840;4.386;2023-04-25T10:11:54;12.90;83.70
39675;DHT22;27790;50.840;4.386;2023-04-25T10:14:22;12.80;83.80
39675;DHT22;27790;50.840;4.386;2023-04-25T10:16:49;12.60;81.50
39675;DHT22;27790;50.840;4.386;2023-04-25T10:19:15;12.60;81.00
39675;DHT22;27790;50.840;4.386;2023-04-25T10:22:00;12.70;82.40
39675;DHT22;27790;50.840;4.386;2023-04-25T10:24:27;12.70;79.90
39675;DHT22;27790;50.840;4.386;2023-04-25T10:26:53;12.90;79.00
39675;DHT22;27790;50.840;4.386;2023-04-25T10:29:26;13.30;81.40
39675;DHT22;27790;50.840;4.386;2023-04-25T10:31:52;13.90;79.20
39675;DHT22;27790;50.840;4.386;2023-04-25T10:34:18;14.10;78.30
39675;DHT22;27790;50.840;4.386;2023-04-25T10:36:50;14.20;75.40
39675;DHT22;27790;50.840;4.386;2023-04-25T10:39:27;14.30;75.70
39675;DHT22;27790;50.840;4.386;2023-04-25T10:41:57;14.30;75.50
39675;DHT22;27790;50.840;4.386;2023-04-25T10:44:26;14.50;77.50
39675;DHT22;27790;50.840;4.386;2023-04-25T10:46:58;14.60;74.00
39675;DHT22;27790;50.840;4.386;2023-04-25T10:49:36;14.50;75.50
39675;DHT22;27790;50.840;4.386;2023-04-25T10:54:52;14.40;73.20
39675;DHT22;27790;50.840;4.386;2023-04-25T10:57:30;14.30;73.30
39675;DHT22;27790;50.840;4.386;2023-04-25T11:00:16;14.40;73.90
39675;DHT22;27790;50.840;4.386;2023-04-25T11:02:46;14.50;74.00
39675;DHT22;27790;50.840;4.386;2023-04-25T11:05:33;14.50;73.90
39675;DHT22;27790;50.840;4.386;2023-04-25T11:07:59;14.30;74.20
39675;DHT22;27790;50.840;4.386;2023-04-25T11:10:31;13.90;75.70
39675;DHT22;27790;50.840;4.386;2023-04-25T11:12:58;13.50;80.10
39675;DHT22;27790;50.840;4.386;2023-04-25T11:15:25;13.30;83.90
39675;DHT22;27790;50.840;4.386;2023-04-25T11:17:51;13.10;84.50
39675;DHT22;27790;50.840;4.386;2023-04-25T11:20:17;13.00;84.20
39675;DHT22;27790;50.840;4.386;2023-04-25T11:22:44;12.80;84.40
39675;DHT22;27790;50.840;4.386;2023-04-25T11:25:12;12.90;84.50
39675;DHT22;27790;50.840;4.386;2023-04-25T11:27:56;13.00;84.10
39675;DHT22;27790;50.840;4.386;2023-04-25T11:30:24;13.00;81.90
39675;DHT22;27790;50.840;4.386;2023-04-25T11:32:50;13.00;82.60
39675;DHT22;27790;50.840;4.386;2023-04-25T11:35:17;13.30;82.80
39675;DHT22;27790;50.840;4.386;2023-04-25T11:37:43;13.50;82.30
39675;DHT22;27790;50.840;4.386;2023-04-25T11:40:10;13.70;82.80
39675;DHT22;27790;50.840;4.386;2023-04-25T11:42:37;13.80;81.40
39675;DHT22;27790;50.840;4.386;2023-04-25T11:45:04;13.90;81.70
39675;DHT22;27790;50.840;4.386;2023-04-25T11:47:31;14.00;81.10
39675;DHT22;27790;50.840;4.386;2023-04-25T11:50:03;13.80;79.90
39675;DHT22;27790;50.840;4.386;2023-04-25T11:52:42;13.80;80.50
39675;DHT22;27790;50.840;4.386;2023-04-25T11:57:42;13.90;78.00
39675;DHT22;27790;50.840;4.386;2023-04-25T12:00:17;14.00;77.70
39675;DHT22;27790;50.840;4.386;2023-04-25T12:02:44;13.90;75.90
39675;DHT22;27790;50.840;4.386;2023-04-25T12:05:11;14.00;75.60
39675;DHT22;27790;50.840;4.386;2023-04-25T12:07:37;14.20;78.30
39675;DHT22;27790;50.840;4.386;2023-04-25T12:10:11;14.40;75.40
39675;DHT22;27790;50.840;4.386;2023-04-25T12:12:38;14.30;74.70
39675;DHT22;27790;50.840;4.386;2023-04-25T12:15:14;14.20;75.80
39675;DHT22;27790;50.840;4.386;2023-04-25T12:17:50;14.10;76.30
39675;DHT22;27790;50.840;4.386;2023-04-25T12:20:23;14.00;76.70
39675;DHT22;27790;50.840;4.386;2023-04-25T12:22:49;14.00;78.10
39675;DHT22;27790;50.840;4.386;2023-04-25T12:31:05;13.70;74.80
39675;DHT22;27790;50.840;4.386;2023-04-25T12:33:35;13.60;76.10
39675;DHT22;27790;50.840;4.386;2023-04-25T12:36:03;13.50;75.60
39675;DHT22;27790;50.840;4.386;2023-04-25T12:38:40;13.60;75.90
39675;DHT22;27790;50.840;4.386;2023-04-25T12:41:06;13.30;73.50
39675;DHT22;27790;50.840;4.386;2023-04-25T12:43:32;13.20;73.90
39675;DHT22;27790;50.840;4.386;2023-04-25T12:45:57;13.20;74.40
39675;DHT22;27790;50.840;4.386;2023-04-25T12:48:23;13.50;73.20
39675;DHT22;27790;50.840;4.386;2023-04-25T12:50:50;13.90;72.50
39675;DHT22;27790;50.840;4.386;2023-04-25T12:53:17;14.20;72.50
39675;DHT22;27790;50.840;4.386;2023-04-25T12:55:43;14.30;73.10
39675;DHT22;27790;50.840;4.386;2023-04-25T12:58:11;14.40;72.50
39675;DHT22;27790;50.840;4.386;2023-04-25T13:00:36;14.30;73.30
39675;DHT22;27790;50.840;4.386;2023-04-25T13:03:03;14.30;72.00
39675;DHT22;27790;50.840;4.386;2023-04-25T13:05:30;14.20;73.50
39675;DHT22;27790;50.840;4.386;2023-04-25T13:07:56;14.10;74.10
39675;DHT22;27790;50.840;4.386;2023-04-25T13:10:21;13.90;75.90
39675;DHT22;27790;50.840;4.386;2023-04-25T13:12:47;14.00;77.20
39675;DHT22;27790;50.840;4.386;2023-04-25T13:15:13;13.90;76.00
39675;DHT22;27790;50.840;4.386;2023-04-25T13:17:41;13.60;75.70
39675;DHT22;27790;50.840;4.386;2023-04-25T13:20:07;13.40;75.70
39675;DHT22;27790;50.840;4.386;2023-04-25T13:22:37;13.30;76.10
39675;DHT22;27790;50.840;4.386;2023-04-25T13:25:04;13.30;76.40
39675;DHT22;27790;50.840;4.386;2023-04-25T13:27:30;13.20;77.00
39675;DHT22;27790;50.840;4.386;2023-04-25T13:29:58;13.10;76.80
39675;DHT22;27790;50.840;4.386;2023-04-25T13:32:24;13.10;77.30
39675;DHT22;27790;50.840;4.386;2023-04-25T13:34:51;13.20;76.80
39675;DHT22;27790;50.840;4.386;2023-04-25T13:37:16;13.30;74.70
39675;DHT22;27790;50.840;4.386;2023-04-25T13:39:42;13.50;74.00
39675;DHT22;27790;50.840;4.386;2023-04-25T13:42:08;13.80;74.00
39675;DHT22;27790;50.840;4.386;2023-04-25T13:44:33;14.10;74.60
39675;DHT22;27790;50.840;4.386;2023-04-25T13:46:59;14.20;73.10
39675;DHT22;27790;50.840;4.386;2023-04-25T13:49:26;14.30;74.30
39675;DHT22;27790;50.840;4.386;2023-04-25T13:51:51;14.30;71.80
39675;DHT22;27790;50.840;4.386;2023-04-25T13:54:19;14.30;72.00
39675;DHT22;27790;50.840;4.386;2023-04-25T13:56:45;14.00;70.20
39675;DHT22;27790;50.840;4.386;2023-04-25T13:59:11;13.80;72.10
39675;DHT22;27790;50.840;4.386;2023-04-25T14:01:36;13.70;74.40
39675;DHT22;27790;50.840;4.386;2023-04-25T14:04:02;13.30;76.30
39675;DHT22;27790;50.840;4.386;2023-04-25T14:06:32;13.10;76.50
39675;DHT22;27790;50.840;4.386;2023-04-25T14:08:58;12.90;76.90
39675;DHT22;27790;50.840;4.386;2023-04-25T14:11:25;12.80;77.40
39675;DHT22;27790;50.840;4.386;2023-04-25T14:13:51;12.90;77.70
39675;DHT22;27790;50.840;4.386;2023-04-25T14:16:17;12.80;77.70
39675;DHT22;27790;50.840;4.386;2023-04-25T14:18:42;12.80;75.50
39675;DHT22;27790;50.840;4.386;2023-04-25T14:21:09;12.80;75.30
39675;DHT22;27790;50.840;4.386;2023-04-25T14:23:35;12.60;77.10
39675;DHT22;27790;50.840;4.386;2023-04-25T14:26:01;12.70;77.80
39675;DHT22;27790;50.840;4.386;2023-04-25T14:28:27;12.70;77.20
39675;DHT22;27790;50.840;4.386;2023-04-25T14:30:52;12.60;75.30
39675;DHT22;27790;50.840;4.386;2023-04-25T14:33:18;12.40;74.90
39675;DHT22;27790;50.840;4.386;2023-04-25T14:35:43;12.30;75.50
39675;DHT22;27790;50.840;4.386;2023-04-25T14:38:09;12.40;74.00
39675;DHT22;27790;50.840;4.386;2023-04-25T14:40:35;12.50;74.20
39675;DHT22;27790;50.840;4.386;2023-04-25T14:43:00;12.50;74.20
39675;DHT22;27790;50.840;4.386;2023-04-25T14:45:26;12.60;74.90
39675;DHT22;27790;50.840;4.386;2023-04-25T14:47:51;12.80;72.80
39675;DHT22;27790;50.840;4.386;2023-04-25T14:50:17;13.00;71.60
39675;DHT22;27790;50.840;4.386;2023-04-25T14:52:43;13.30;72.90
39675;DHT22;27790;50.840;4.386;2023-04-25T14:55:10;13.50;72.90
39675;DHT22;27790;50.840;4.386;2023-04-25T14:57:36;13.80;74.30
39675;DHT22;27790;50.840;4.386;2023-04-25T15:00:03;13.60;73.90
39675;DHT22;27790;50.840;4.386;2023-04-25T15:02:30;13.50;75.10
39675;DHT22;27790;50.840;4.386;2023-04-25T15:04:56;13.40;72.10
39675;DHT22;27790;50.840;4.386;2023-04-25T15:07:22;13.20;72.30
39675;DHT22;27790;50.840;4.386;2023-04-25T15:09:47;13.20;73.40
39675;DHT22;27790;50.840;4.386;2023-04-25T15:12:14;13.30;73.10
39675;DHT22;27790;50.840;4.386;2023-04-25T15:14:39;13.20;73.90
39675;DHT22;27790;50.840;4.386;2023-04-25T15:17:05;13.00;74.70
39675;DHT22;27790;50.840;4.386;2023-04-25T15:19:31;13.10;75.20
39675;DHT22;27790;50.840;4.386;2023-04-25T15:21:57;13.30;75.80
39675;DHT22;27790;50.840;4.386;2023-04-25T15:24:25;13.40;73.60
39675;DHT22;27790;50.840;4.386;2023-04-25T15:26:51;13.40;74.50
39675;DHT22;27790;50.840;4.386;2023-04-25T15:29:17;13.50;74.80
39675;DHT22;27790;50.840;4.386;2023-04-25T15:31:44;13.30;74.30
39675;DHT22;27790;50.840;4.386;2023-04-25T15:34:10;13.10;73.50
39675;DHT22;27790;50.840;4.386;2023-04-25T15:36:36;13.00;72.80
39675;DHT22;27790;50.840;4.386;2023-04-25T15:39:01;12.80;73.30
39675;DHT22;27790;50.840;4.386;2023-04-25T15:41:28;12.80;72.90
39675;DHT22;27790;50.840;4.386;2023-04-25T15:43:53;12.80;73.30
39675;DHT22;27790;50.840;4.386;2023-04-25T15:46:19;12.70;73.70